sensor_id;sensor_type;location;lat;lon;timestamp;P1;P2;P0
53634;PMS5003;39542;-34.932;138.594;2022-12-18T00:00:33;0.0;0.0;
53634;PMS5003;39542;-34.932;138.594;2022-12-18T00:01:14;1.0;1.0;
53634;PMS5003;39542;-34.932;138.594;2022-12-18T00:01:51;1.0;1.0;
53634;PMS5003;39542;-34.932;138.594;2022-12-18T00:02:28;0.0;0.0;
53634;PMS5003;39542;-34.932;138.594;2022-12-18T00:03:03;1.0;1.0;
53634;PMS5003;39542;-34.932;138.594;2022-12-18T00:03:38;2.0;2.0;
53634;PMS5003;39542;-34.932;138.594;2022-12-18T00:04:16;1.0;1.0;
53634;PMS5003;39542;-34.932;138.594;2022-12-18T00:04:53;1.0;1.0;
53634;PMS5003;39542;-34.932;138.594;2022-12-18T00:05:27;1.0;1.0;
53634;PMS5003;39542;-34.932;138.594;2022-12-18T00:06:02;1.0;1.0;
53634;PMS5003;39542;-34.932;138.594;2022-12-18T00:06:37;0.0;0.0;
53634;PMS5003;39542;-34.932;138.594;2022-12-18T00:07:11;1.0;1.0;
53634;PMS5003;39542;-34.932;138.594;2022-12-18T00:07:46;1.0;1.0;
53634;PMS5003;39542;-34.932;138.594;2022-12-18T00:08:21;1.0;1.0;
53634;PMS5003;39542;-34.932;138.594;2022-12-18T00:08:56;1.0;1.0;
53634;PMS5003;39542;-34.932;138.594;2022-12-18T00:09:31;0.0;0.0;
53634;PMS5003;39542;-34.932;138.594;2022-12-18T00:10:06;0.0;0.0;
53634;PMS5003;39542;-34.932;138.594;2022-12-18T00:10:41;2.0;1.0;
53634;PMS5003;39542;-34.932;138.594;2022-12-18T00:11:19;0.0;0.0;
53634;PMS5003;39542;-34.932;138.594;2022-12-18T00:11:55;1.0;1.0;
53634;PMS5003;39542;-34.932;138.594;2022-12-18T00:12:30;2.0;1.0;
53634;PMS5003;39542;-34.932;138.594;2022-12-18T00:13:04;0.0;0.0;
53634;PMS5003;39542;-34.932;138.594;2022-12-18T00:13:39;1.0;1.0;
53634;PMS5003;39542;-34.932;138.594;2022-12-18T00:14:14;0.0;0.0;
53634;PMS5003;39542;-34.932;138.594;2022-12-18T00:14:49;1.0;1.0;
53634;PMS5003;39542;-34.932;138.594;2022-12-18T00:15:23;1.0;1.0;
53634;PMS5003;39542;-34.932;138.594;2022-12-18T00:16:01;2.0;2.0;
53634;PMS5003;39542;-34.932;138.594;2022-12-18T00:16:37;2.0;2.0;
53634;PMS5003;39542;-34.932;138.594;2022-12-18T00:17:15;0.0;0.0;
53634;PMS5003;39542;-34.932;138.594;2022-12-18T00:17:50;1.0;1.0;
53634;PMS5003;39542;-34.932;138.594;2022-12-18T00:18:24;2.0;2.0;
53634;PMS5003;39542;-34.932;138.594;2022-12-18T00:18:59;0.0;0.0;
53634;PMS5003;39542;-34.932;138.594;2022-12-18T00:19:34;1.0;1.0;
53634;PMS5003;39542;-34.932;138.594;2022-12-18T00:20:09;2.0;2.0;
53634;PMS5003;39542;-34.932;138.594;2022-12-18T00:20:44;2.0;1.0;
53634;PMS5003;39542;-34.932;138.594;2022-12-18T00:21:20;1.0;1.0;
53634;PMS5003;39542;-34.932;138.594;2022-12-18T00:21:54;2.0;2.0;
53634;PMS5003;39542;-34.932;138.594;2022-12-18T00:22:29;2.0;2.0;
53634;PMS5003;39542;-34.932;138.594;2022-12-18T00:23:04;2.0;2.0;
53634;PMS5003;39542;-34.932;138.594;2022-12-18T00:23:39;2.0;2.0;
53634;PMS5003;39542;-34.932;138.594;2022-12-18T00:24:15;2.0;2.0;
53634;PMS5003;39542;-34.932;138.594;2022-12-18T00:24:51;1.0;1.0;
53634;PMS5003;39542;-34.932;138.594;2022-12-18T00:25:25;1.0;1.0;
53634;PMS5003;39542;-34.932;138.594;2022-12-18T00:26:00;0.0;0.0;
53634;PMS5003;39542;-34.932;138.594;2022-12-18T00:26:37;1.0;1.0;
53634;PMS5003;39542;-34.932;138.594;2022-12-18T00:27:12;2.0;1.0;
53634;PMS5003;39542;-34.932;138.594;2022-12-18T00:27:46;1.0;1.0;
53634;PMS5003;39542;-34.932;138.594;2022-12-18T00:28:22;1.0;1.0;
53634;PMS5003;39542;-34.932;138.594;2022-12-18T00:28:58;1.0;1.0;
53634;PMS5003;39542;-34.932;138.594;2022-12-18T00:29:34;1.0;1.0;
53634;PMS5003;39542;-34.932;138.594;2022-12-18T00:30:09;1.0;1.0;
53634;PMS5003;39542;-34.932;138.594;2022-12-18T00:30:44;3.0;1.0;
53634;PMS5003;39542;-34.932;138.594;2022-12-18T00:31:20;1.0;1.0;
53634;PMS5003;39542;-34.932;138.594;2022-12-18T00:31:56;2.0;1.0;
53634;PMS5003;39542;-34.932;138.594;2022-12-18T00:32:32;2.0;2.0;
53634;PMS5003;39542;-34.932;138.594;2022-12-18T00:33:07;2.0;2.0;
53634;PMS5003;39542;-34.932;138.594;2022-12-18T00:33:41;3.0;2.0;
53634;PMS5003;39542;-34.932;138.594;2022-12-18T00:34:16;2.0;2.0;
53634;PMS5003;39542;-34.932;138.594;2022-12-18T00:34:52;1.0;1.0;
53634;PMS5003;39542;-34.932;138.594;2022-12-18T00:35:26;2.0;1.0;
53634;PMS5003;39542;-34.932;138.594;2022-12-18T00:36:01;0.0;0.0;
53634;PMS5003;39542;-34.932;138.594;2022-12-18T00:36:37;1.0;1.0;
53634;PMS5003;39542;-34.932;138.594;2022-12-18T00:37:12;1.0;1.0;
53634;PMS5003;39542;-34.932;138.594;2022-12-18T00:37:47;1.0;1.0;
53634;PMS5003;39542;-34.932;138.594;2022-12-18T00:38:22;1.0;1.0;
53634;PMS5003;39542;-34.932;138.594;2022-12-18T00:38:57;2.0;2.0;
53634;PMS5003;39542;-34.932;138.594;2022-12-18T00:39:33;2.0;2.0;
53634;PMS5003;39542;-34.932;138.594;2022-12-18T00:40:08;2.0;2.0;
53634;PMS5003;39542;-34.932;138.594;2022-12-18T00:40:43;2.0;2.0;
53634;PMS5003;39542;-34.932;138.594;2022-12-18T00:41:18;1.0;1.0;
53634;PMS5003;39542;-34.932;138.594;2022-12-18T00:41:54;1.0;1.0;
53634;PMS5003;39542;-34.932;138.594;2022-12-18T00:42:29;3.0;2.0;
53634;PMS5003;39542;-34.932;138.594;2022-12-18T00:43:03;2.0;2.0;
53634;PMS5003;39542;-34.932;138.594;2022-12-18T00:43:38;2.0;2.0;
53634;PMS5003;39542;-34.932;138.594;2022-12-18T00:44:14;1.0;1.0;
53634;PMS5003;39542;-34.932;138.594;2022-12-18T00:44:50;1.0;1.0;
53634;PMS5003;39542;-34.932;138.594;2022-12-18T00:45:25;1.0;1.0;
53634;PMS5003;39542;-34.932;138.594;2022-12-18T00:46:01;1.0;1.0;
53634;PMS5003;39542;-34.932;138.594;2022-12-18T00:46:36;0.0;0.0;
53634;PMS5003;39542;-34.932;138.594;2022-12-18T00:47:11;1.0;0.0;
53634;PMS5003;39542;-34.932;138.594;2022-12-18T00:47:45;0.0;0.0;
53634;PMS5003;39542;-34.932;138.594;2022-12-18T00:48:20;1.0;0.0;
53634;PMS5003;39542;-34.932;138.594;2022-12-18T00:48:55;0.0;0.0;
53634;PMS5003;39542;-34.932;138.594;2022-12-18T00:49:30;0.0;0.0;
53634;PMS5003;39542;-34.932;138.594;2022-12-18T00:50:06;1.0;1.0;
53634;PMS5003;39542;-34.932;138.594;2022-12-18T00:50:41;1.0;1.0;
53634;PMS5003;39542;-34.932;138.594;2022-12-18T00:51:16;2.0;1.0;
53634;PMS5003;39542;-34.932;138.594;2022-12-18T00:51:50;1.0;1.0;
53634;PMS5003;39542;-34.932;138.594;2022-12-18T00:52:25;0.0;0.0;
53634;PMS5003;39542;-34.932;138.594;2022-12-18T00:52:59;1.0;1.0;
53634;PMS5003;39542;-34.932;138.594;2022-12-18T00:53:34;2.0;1.0;
53634;PMS5003;39542;-34.932;138.594;2022-12-18T00:54:08;2.0;2.0;
53634;PMS5003;39542;-34.932;138.594;2022-12-18T00:54:43;2.0;1.0;
53634;PMS5003;39542;-34.932;138.594;2022-12-18T00:55:18;1.0;1.0;
53634;PMS5003;39542;-34.932;138.594;2022-12-18T00:55:52;1.0;1.0;
53634;PMS5003;39542;-34.932;138.594;2022-12-18T00:56:27;1.0;1.0;
53634;PMS5003;39542;-34.932;138.594;2022-12-18T00:57:02;1.0;1.0;
53634;PMS5003;39542;-34.932;138.594;2022-12-18T00:57:36;1.0;1.0;
53634;PMS5003;39542;-34.932;138.594;2022-12-18T00:58:12;2.0;2.0;
53634;PMS5003;39542;-34.932;138.594;2022-12-18T00:58:48;1.0;1.0;
53634;PMS5003;39542;-34.932;138.594;2022-12-18T00:59:22;1.0;1.0;
53634;PMS5003;39542;-34.932;138.594;2022-12-18T00:59:58;2.0;1.0;
53634;PMS5003;39542;-34.932;138.594;2022-12-18T01:00:32;1.0;1.0;
53634;PMS5003;39542;-34.932;138.594;2022-12-18T01:01:07;1.0;1.0;
53634;PMS5003;39542;-34.932;138.594;2022-12-18T01:01:42;2.0;2.0;
53634;PMS5003;39542;-34.932;138.594;2022-12-18T01:02:17;1.0;1.0;
53634;PMS5003;39542;-34.932;138.594;2022-12-18T01:02:52;2.0;1.0;
53634;PMS5003;39542;-34.932;138.594;2022-12-18T01:03:27;0.0;0.0;
53634;PMS5003;39542;-34.932;138.594;2022-12-18T01:04:02;1.0;1.0;
53634;PMS5003;39542;-34.932;138.594;2022-12-18T01:04:37;2.0;2.0;
53634;PMS5003;39542;-34.932;138.594;2022-12-18T01:05:12;1.0;1.0;
53634;PMS5003;39542;-34.932;138.594;2022-12-18T01:05:47;4.0;3.0;
53634;PMS5003;39542;-34.932;138.594;2022-12-18T01:06:22;3.0;1.0;
53634;PMS5003;39542;-34.932;138.594;2022-12-18T01:06:57;3.0;3.0;
53634;PMS5003;39542;-34.932;138.594;2022-12-18T01:07:31;1.0;1.0;
53634;PMS5003;39542;-34.932;138.594;2022-12-18T01:08:06;1.0;1.0;
53634;PMS5003;39542;-34.932;138.594;2022-12-18T01:08:41;3.0;3.0;
53634;PMS5003;39542;-34.932;138.594;2022-12-18T01:09:17;2.0;2.0;
53634;PMS5003;39542;-34.932;138.594;2022-12-18T01:09:52;2.0;2.0;
53634;PMS5003;39542;-34.932;138.594;2022-12-18T01:10:26;2.0;2.0;
53634;PMS5003;39542;-34.932;138.594;2022-12-18T01:11:01;1.0;1.0;
53634;PMS5003;39542;-34.932;138.594;2022-12-18T01:11:40;2.0;2.0;
53634;PMS5003;39542;-34.932;138.594;2022-12-18T01:12:15;4.0;1.0;
53634;PMS5003;39542;-34.932;138.594;2022-12-18T01:12:50;1.0;1.0;
53634;PMS5003;39542;-34.932;138.594;2022-12-18T01:13:24;3.0;3.0;
53634;PMS5003;39542;-34.932;138.594;2022-12-18T01:14:00;1.0;1.0;
53634;PMS5003;39542;-34.932;138.594;2022-12-18T01:14:35;2.0;2.0;
53634;PMS5003;39542;-34.932;138.594;2022-12-18T01:15:10;2.0;0.0;
53634;PMS5003;39542;-34.932;138.594;2022-12-18T01:15:48;3.0;2.0;
53634;PMS5003;39542;-34.932;138.594;2022-12-18T01:16:23;1.0;1.0;
53634;PMS5003;39542;-34.932;138.594;2022-12-18T01:16:57;2.0;2.0;
53634;PMS5003;39542;-34.932;138.594;2022-12-18T01:17:32;1.0;1.0;
53634;PMS5003;39542;-34.932;138.594;2022-12-18T01:18:07;1.0;1.0;
53634;PMS5003;39542;-34.932;138.594;2022-12-18T01:18:41;1.0;1.0;
53634;PMS5003;39542;-34.932;138.594;2022-12-18T01:19:16;1.0;1.0;
53634;PMS5003;39542;-34.932;138.594;2022-12-18T01:19:50;0.0;0.0;
53634;PMS5003;39542;-34.932;138.594;2022-12-18T01:20:25;1.0;1.0;
53634;PMS5003;39542;-34.932;138.594;2022-12-18T01:21:00;1.0;1.0;
53634;PMS5003;39542;-34.932;138.594;2022-12-18T01:21:38;2.0;2.0;
53634;PMS5003;39542;-34.932;138.594;2022-12-18T01:22:13;3.0;3.0;
53634;PMS5003;39542;-34.932;138.594;2022-12-18T01:22:48;2.0;2.0;
53634;PMS5003;39542;-34.932;138.594;2022-12-18T01:23:23;1.0;1.0;
53634;PMS5003;39542;-34.932;138.594;2022-12-18T01:23:57;3.0;2.0;
53634;PMS5003;39542;-34.932;138.594;2022-12-18T01:24:31;3.0;3.0;
53634;PMS5003;39542;-34.932;138.594;2022-12-18T01:25:06;3.0;3.0;
53634;PMS5003;39542;-34.932;138.594;2022-12-18T01:25:41;2.0;2.0;
53634;PMS5003;39542;-34.932;138.594;2022-12-18T01:26:17;3.0;1.0;
53634;PMS5003;39542;-34.932;138.594;2022-12-18T01:26:52;1.0;1.0;
53634;PMS5003;39542;-34.932;138.594;2022-12-18T01:27:26;0.0;0.0;
53634;PMS5003;39542;-34.932;138.594;2022-12-18T01:28:00;3.0;2.0;
53634;PMS5003;39542;-34.932;138.594;2022-12-18T01:28:35;2.0;2.0;
53634;PMS5003;39542;-34.932;138.594;2022-12-18T01:29:10;2.0;1.0;
53634;PMS5003;39542;-34.932;138.594;2022-12-18T01:29:45;1.0;1.0;
53634;PMS5003;39542;-34.932;138.594;2022-12-18T01:30:20;2.0;2.0;
53634;PMS5003;39542;-34.932;138.594;2022-12-18T01:30:55;1.0;1.0;
53634;PMS5003;39542;-34.932;138.594;2022-12-18T01:31:30;2.0;2.0;
53634;PMS5003;39542;-34.932;138.594;2022-12-18T01:32:05;2.0;2.0;
53634;PMS5003;39542;-34.932;138.594;2022-12-18T01:32:40;2.0;2.0;
53634;PMS5003;39542;-34.932;138.594;2022-12-18T01:33:15;2.0;2.0;
53634;PMS5003;39542;-34.932;138.594;2022-12-18T01:33:50;1.0;1.0;
53634;PMS5003;39542;-34.932;138.594;2022-12-18T01:34:25;2.0;2.0;
53634;PMS5003;39542;-34.932;138.594;2022-12-18T01:34:59;0.0;0.0;
53634;PMS5003;39542;-34.932;138.594;2022-12-18T01:35:39;3.0;3.0;
53634;PMS5003;39542;-34.932;138.594;2022-12-18T01:36:16;3.0;2.0;
53634;PMS5003;39542;-34.932;138.594;2022-12-18T01:36:52;3.0;3.0;
53634;PMS5003;39542;-34.932;138.594;2022-12-18T01:37:27;5.0;5.0;
53634;PMS5003;39542;-34.932;138.594;2022-12-18T01:38:01;1.0;1.0;
53634;PMS5003;39542;-34.932;138.594;2022-12-18T01:38:36;1.0;1.0;
53634;PMS5003;39542;-34.932;138.594;2022-12-18T01:39:12;1.0;1.0;
53634;PMS5003;39542;-34.932;138.594;2022-12-18T01:39:47;1.0;1.0;
53634;PMS5003;39542;-34.932;138.594;2022-12-18T01:40:22;0.0;0.0;
53634;PMS5003;39542;-34.932;138.594;2022-12-18T01:40:57;2.0;2.0;
53634;PMS5003;39542;-34.932;138.594;2022-12-18T01:41:33;3.0;3.0;
53634;PMS5003;39542;-34.932;138.594;2022-12-18T01:42:10;3.0;3.0;
53634;PMS5003;39542;-34.932;138.594;2022-12-18T01:42:49;3.0;2.0;
53634;PMS5003;39542;-34.932;138.594;2022-12-18T01:43:40;1.0;1.0;
53634;PMS5003;39542;-34.932;138.594;2022-12-18T01:45:24;2.0;2.0;
53634;PMS5003;39542;-34.932;138.594;2022-12-18T01:46:00;3.0;3.0;
53634;PMS5003;39542;-34.932;138.594;2022-12-18T01:46:36;4.0;4.0;
53634;PMS5003;39542;-34.932;138.594;2022-12-18T01:47:10;1.0;1.0;
53634;PMS5003;39542;-34.932;138.594;2022-12-18T01:47:50;2.0;2.0;
53634;PMS5003;39542;-34.932;138.594;2022-12-18T01:48:27;3.0;3.0;
53634;PMS5003;39542;-34.932;138.594;2022-12-18T01:49:02;2.0;2.0;
53634;PMS5003;39542;-34.932;138.594;2022-12-18T01:49:38;2.0;2.0;
53634;PMS5003;39542;-34.932;138.594;2022-12-18T01:50:13;2.0;2.0;
53634;PMS5003;39542;-34.932;138.594;2022-12-18T01:50:51;1.0;1.0;
53634;PMS5003;39542;-34.932;138.594;2022-12-18T01:51:26;1.0;1.0;
53634;PMS5003;39542;-34.932;138.594;2022-12-18T01:52:01;2.0;2.0;
53634;PMS5003;39542;-34.932;138.594;2022-12-18T01:52:36;2.0;2.0;
53634;PMS5003;39542;-34.932;138.594;2022-12-18T01:53:14;2.0;2.0;
53634;PMS5003;39542;-34.932;138.594;2022-12-18T01:53:51;2.0;2.0;
53634;PMS5003;39542;-34.932;138.594;2022-12-18T01:54:25;2.0;2.0;
53634;PMS5003;39542;-34.932;138.594;2022-12-18T01:55:01;3.0;3.0;
53634;PMS5003;39542;-34.932;138.594;2022-12-18T01:55:37;3.0;3.0;
53634;PMS5003;39542;-34.932;138.594;2022-12-18T01:56:16;2.0;2.0;
53634;PMS5003;39542;-34.932;138.594;2022-12-18T01:56:53;2.0;2.0;
53634;PMS5003;39542;-34.932;138.594;2022-12-18T01:57:28;4.0;4.0;
53634;PMS5003;39542;-34.932;138.594;2022-12-18T01:58:02;2.0;2.0;
53634;PMS5003;39542;-34.932;138.594;2022-12-18T01:58:39;2.0;2.0;
53634;PMS5003;39542;-34.932;138.594;2022-12-18T01:59:21;3.0;3.0;
53634;PMS5003;39542;-34.932;138.594;2022-12-18T01:59:59;3.0;3.0;
53634;PMS5003;39542;-34.932;138.594;2022-12-18T02:00:37;2.0;2.0;
53634;PMS5003;39542;-34.932;138.594;2022-12-18T02:01:13;2.0;2.0;
53634;PMS5003;39542;-34.932;138.594;2022-12-18T02:01:47;3.0;3.0;
53634;PMS5003;39542;-34.932;138.594;2022-12-18T02:02:22;3.0;3.0;
53634;PMS5003;39542;-34.932;138.594;2022-12-18T02:02:58;3.0;3.0;
53634;PMS5003;39542;-34.932;138.594;2022-12-18T02:03:33;3.0;3.0;
53634;PMS5003;39542;-34.932;138.594;2022-12-18T02:04:19;3.0;3.0;
53634;PMS5003;39542;-34.932;138.594;2022-12-18T02:04:54;6.0;5.0;
53634;PMS5003;39542;-34.932;138.594;2022-12-18T02:05:32;2.0;2.0;
53634;PMS5003;39542;-34.932;138.594;2022-12-18T02:06:13;3.0;3.0;
53634;PMS5003;39542;-34.932;138.594;2022-12-18T02:06:54;4.0;4.0;
53634;PMS5003;39542;-34.932;138.594;2022-12-18T02:07:40;3.0;3.0;
53634;PMS5003;39542;-34.932;138.594;2022-12-18T02:08:20;5.0;4.0;
53634;PMS5003;39542;-34.932;138.594;2022-12-18T02:09:03;3.0;3.0;
53634;PMS5003;39542;-34.932;138.594;2022-12-18T02:09:45;3.0;3.0;
53634;PMS5003;39542;-34.932;138.594;2022-12-18T02:10:25;3.0;3.0;
53634;PMS5003;39542;-34.932;138.594;2022-12-18T02:11:06;3.0;3.0;
53634;PMS5003;39542;-34.932;138.594;2022-12-18T02:11:46;3.0;3.0;
53634;PMS5003;39542;-34.932;138.594;2022-12-18T02:12:29;4.0;3.0;
53634;PMS5003;39542;-34.932;138.594;2022-12-18T02:13:11;3.0;3.0;
53634;PMS5003;39542;-34.932;138.594;2022-12-18T02:13:53;3.0;3.0;
53634;PMS5003;39542;-34.932;138.594;2022-12-18T02:14:37;5.0;3.0;
53634;PMS5003;39542;-34.932;138.594;2022-12-18T02:15:20;2.0;2.0;
53634;PMS5003;39542;-34.932;138.594;2022-12-18T02:16:01;4.0;4.0;
53634;PMS5003;39542;-34.932;138.594;2022-12-18T02:16:43;4.0;4.0;
53634;PMS5003;39542;-34.932;138.594;2022-12-18T02:17:25;4.0;4.0;
53634;PMS5003;39542;-34.932;138.594;2022-12-18T02:18:08;3.0;3.0;
53634;PMS5003;39542;-34.932;138.594;2022-12-18T02:18:48;1.0;1.0;
53634;PMS5003;39542;-34.932;138.594;2022-12-18T02:19:37;5.0;5.0;
53634;PMS5003;39542;-34.932;138.594;2022-12-18T02:20:21;3.0;3.0;
53634;PMS5003;39542;-34.932;138.594;2022-12-18T02:21:08;2.0;2.0;
53634;PMS5003;39542;-34.932;138.594;2022-12-18T02:21:54;3.0;3.0;
53634;PMS5003;39542;-34.932;138.594;2022-12-18T02:22:40;1.0;1.0;
53634;PMS5003;39542;-34.932;138.594;2022-12-18T02:23:28;6.0;5.0;
53634;PMS5003;39542;-34.932;138.594;2022-12-18T02:24:17;4.0;4.0;
53634;PMS5003;39542;-34.932;138.594;2022-12-18T02:25:10;4.0;4.0;
53634;PMS5003;39542;-34.932;138.594;2022-12-18T02:26:01;3.0;3.0;
53634;PMS5003;39542;-34.932;138.594;2022-12-18T02:26:43;5.0;3.0;
53634;PMS5003;39542;-34.932;138.594;2022-12-18T02:27:22;2.0;2.0;
53634;PMS5003;39542;-34.932;138.594;2022-12-18T02:27:58;3.0;3.0;
53634;PMS5003;39542;-34.932;138.594;2022-12-18T02:28:37;2.0;2.0;
53634;PMS5003;39542;-34.932;138.594;2022-12-18T02:29:20;5.0;3.0;
53634;PMS5003;39542;-34.932;138.594;2022-12-18T02:29:57;4.0;3.0;
53634;PMS5003;39542;-34.932;138.594;2022-12-18T02:30:35;3.0;3.0;
53634;PMS5003;39542;-34.932;138.594;2022-12-18T02:31:13;2.0;2.0;
53634;PMS5003;39542;-34.932;138.594;2022-12-18T02:31:51;2.0;2.0;
53634;PMS5003;39542;-34.932;138.594;2022-12-18T02:32:30;4.0;4.0;
53634;PMS5003;39542;-34.932;138.594;2022-12-18T02:33:08;3.0;3.0;
53634;PMS5003;39542;-34.932;138.594;2022-12-18T02:33:44;4.0;4.0;
53634;PMS5003;39542;-34.932;138.594;2022-12-18T02:34:22;3.0;3.0;
53634;PMS5003;39542;-34.932;138.594;2022-12-18T02:35:01;3.0;3.0;
53634;PMS5003;39542;-34.932;138.594;2022-12-18T02:35:38;6.0;4.0;
53634;PMS5003;39542;-34.932;138.594;2022-12-18T02:36:15;3.0;3.0;
53634;PMS5003;39542;-34.932;138.594;2022-12-18T02:36:52;4.0;4.0;
53634;PMS5003;39542;-34.932;138.594;2022-12-18T02:37:29;3.0;3.0;
53634;PMS5003;39542;-34.932;138.594;2022-12-18T02:38:06;3.0;2.0;
53634;PMS5003;39542;-34.932;138.594;2022-12-18T02:38:41;3.0;3.0;
53634;PMS5003;39542;-34.932;138.594;2022-12-18T02:39:17;3.0;3.0;
53634;PMS5003;39542;-34.932;138.594;2022-12-18T02:39:56;4.0;4.0;
53634;PMS5003;39542;-34.932;138.594;2022-12-18T02:40:31;3.0;3.0;
53634;PMS5003;39542;-34.932;138.594;2022-12-18T02:41:08;3.0;3.0;
53634;PMS5003;39542;-34.932;138.594;2022-12-18T02:41:45;4.0;4.0;
53634;PMS5003;39542;-34.932;138.594;2022-12-18T02:42:20;5.0;5.0;
53634;PMS5003;39542;-34.932;138.594;2022-12-18T02:42:54;5.0;3.0;
53634;PMS5003;39542;-34.932;138.594;2022-12-18T02:43:34;4.0;3.0;
53634;PMS5003;39542;-34.932;138.594;2022-12-18T02:44:10;3.0;3.0;
53634;PMS5003;39542;-34.932;138.594;2022-12-18T02:44:46;2.0;2.0;
53634;PMS5003;39542;-34.932;138.594;2022-12-18T02:45:22;3.0;3.0;
53634;PMS5003;39542;-34.932;138.594;2022-12-18T02:45:57;4.0;4.0;
53634;PMS5003;39542;-34.932;138.594;2022-12-18T02:46:34;5.0;5.0;
53634;PMS5003;39542;-34.932;138.594;2022-12-18T02:47:12;6.0;5.0;
53634;PMS5003;39542;-34.932;138.594;2022-12-18T02:47:49;5.0;5.0;
53634;PMS5003;39542;-34.932;138.594;2022-12-18T02:48:25;2.0;2.0;
53634;PMS5003;39542;-34.932;138.594;2022-12-18T02:49:06;2.0;2.0;
53634;PMS5003;39542;-34.932;138.594;2022-12-18T02:49:55;3.0;3.0;
53634;PMS5003;39542;-34.932;138.594;2022-12-18T02:50:40;4.0;4.0;
53634;PMS5003;39542;-34.932;138.594;2022-12-18T02:51:21;4.0;4.0;
53634;PMS5003;39542;-34.932;138.594;2022-12-18T02:52:07;5.0;4.0;
53634;PMS5003;39542;-34.932;138.594;2022-12-18T02:52:55;2.0;2.0;
53634;PMS5003;39542;-34.932;138.594;2022-12-18T02:53:43;3.0;3.0;
53634;PMS5003;39542;-34.932;138.594;2022-12-18T02:54:26;3.0;3.0;
53634;PMS5003;39542;-34.932;138.594;2022-12-18T02:55:15;4.0;4.0;
53634;PMS5003;39542;-34.932;138.594;2022-12-18T02:56:02;4.0;4.0;
53634;PMS5003;39542;-34.932;138.594;2022-12-18T02:56:43;2.0;2.0;
53634;PMS5003;39542;-34.932;138.594;2022-12-18T02:57:24;5.0;4.0;
53634;PMS5003;39542;-34.932;138.594;2022-12-18T02:58:08;4.0;4.0;
53634;PMS5003;39542;-34.932;138.594;2022-12-18T02:58:51;3.0;3.0;
53634;PMS5003;39542;-34.932;138.594;2022-12-18T02:59:34;4.0;4.0;
53634;PMS5003;39542;-34.932;138.594;2022-12-18T03:00:19;6.0;5.0;
53634;PMS5003;39542;-34.932;138.594;2022-12-18T03:00:58;3.0;3.0;
53634;PMS5003;39542;-34.932;138.594;2022-12-18T03:01:38;3.0;3.0;
53634;PMS5003;39542;-34.932;138.594;2022-12-18T03:02:24;5.0;4.0;
53634;PMS5003;39542;-34.932;138.594;2022-12-18T03:03:05;3.0;3.0;
53634;PMS5003;39542;-34.932;138.594;2022-12-18T03:03:46;4.0;4.0;
53634;PMS5003;39542;-34.932;138.594;2022-12-18T03:04:26;6.0;4.0;
53634;PMS5003;39542;-34.932;138.594;2022-12-18T03:05:07;5.0;5.0;
53634;PMS5003;39542;-34.932;138.594;2022-12-18T03:05:47;4.0;4.0;
53634;PMS5003;39542;-34.932;138.594;2022-12-18T03:06:28;4.0;4.0;
53634;PMS5003;39542;-34.932;138.594;2022-12-18T03:07:09;3.0;3.0;
53634;PMS5003;39542;-34.932;138.594;2022-12-18T03:07:49;2.0;2.0;
53634;PMS5003;39542;-34.932;138.594;2022-12-18T03:08:30;5.0;4.0;
53634;PMS5003;39542;-34.932;138.594;2022-12-18T03:09:09;3.0;3.0;
53634;PMS5003;39542;-34.932;138.594;2022-12-18T03:09:48;4.0;4.0;
53634;PMS5003;39542;-34.932;138.594;2022-12-18T03:11:18;4.0;4.0;
53634;PMS5003;39542;-34.932;138.594;2022-12-18T03:11:54;3.0;3.0;
53634;PMS5003;39542;-34.932;138.594;2022-12-18T03:12:36;1.0;1.0;
53634;PMS5003;39542;-34.932;138.594;2022-12-18T03:13:15;3.0;3.0;
53634;PMS5003;39542;-34.932;138.594;2022-12-18T03:13:58;4.0;4.0;
53634;PMS5003;39542;-34.932;138.594;2022-12-18T03:14:33;4.0;4.0;
53634;PMS5003;39542;-34.932;138.594;2022-12-18T03:15:11;5.0;5.0;
53634;PMS5003;39542;-34.932;138.594;2022-12-18T03:15:50;6.0;5.0;
53634;PMS5003;39542;-34.932;138.594;2022-12-18T03:16:28;5.0;5.0;
53634;PMS5003;39542;-34.932;138.594;2022-12-18T03:17:07;3.0;3.0;
53634;PMS5003;39542;-34.932;138.594;2022-12-18T03:17:46;3.0;3.0;
53634;PMS5003;39542;-34.932;138.594;2022-12-18T03:18:26;3.0;3.0;
53634;PMS5003;39542;-34.932;138.594;2022-12-18T03:19:07;5.0;4.0;
53634;PMS5003;39542;-34.932;138.594;2022-12-18T03:19:46;6.0;5.0;
53634;PMS5003;39542;-34.932;138.594;2022-12-18T03:20:24;4.0;4.0;
53634;PMS5003;39542;-34.932;138.594;2022-12-18T03:21:02;3.0;3.0;
53634;PMS5003;39542;-34.932;138.594;2022-12-18T03:21:43;6.0;4.0;
53634;PMS5003;39542;-34.932;138.594;2022-12-18T03:22:21;4.0;4.0;
53634;PMS5003;39542;-34.932;138.594;2022-12-18T03:22:59;6.0;5.0;
53634;PMS5003;39542;-34.932;138.594;2022-12-18T03:23:40;4.0;4.0;
53634;PMS5003;39542;-34.932;138.594;2022-12-18T03:24:18;2.0;2.0;
53634;PMS5003;39542;-34.932;138.594;2022-12-18T03:24:55;4.0;4.0;
53634;PMS5003;39542;-34.932;138.594;2022-12-18T03:25:32;5.0;5.0;
53634;PMS5003;39542;-34.932;138.594;2022-12-18T03:26:12;5.0;4.0;
53634;PMS5003;39542;-34.932;138.594;2022-12-18T03:26:52;6.0;6.0;
53634;PMS5003;39542;-34.932;138.594;2022-12-18T03:27:30;3.0;3.0;
53634;PMS5003;39542;-34.932;138.594;2022-12-18T03:28:09;3.0;3.0;
53634;PMS5003;39542;-34.932;138.594;2022-12-18T03:28:49;4.0;3.0;
53634;PMS5003;39542;-34.932;138.594;2022-12-18T03:29:31;6.0;6.0;
53634;PMS5003;39542;-34.932;138.594;2022-12-18T03:30:10;3.0;3.0;
53634;PMS5003;39542;-34.932;138.594;2022-12-18T03:30:47;4.0;4.0;
53634;PMS5003;39542;-34.932;138.594;2022-12-18T03:31:27;5.0;5.0;
53634;PMS5003;39542;-34.932;138.594;2022-12-18T03:32:05;4.0;4.0;
53634;PMS5003;39542;-34.932;138.594;2022-12-18T03:32:44;4.0;4.0;
53634;PMS5003;39542;-34.932;138.594;2022-12-18T03:33:25;5.0;5.0;
53634;PMS5003;39542;-34.932;138.594;2022-12-18T03:34:05;5.0;5.0;
53634;PMS5003;39542;-34.932;138.594;2022-12-18T03:34:46;4.0;4.0;
53634;PMS5003;39542;-34.932;138.594;2022-12-18T03:35:26;5.0;5.0;
53634;PMS5003;39542;-34.932;138.594;2022-12-18T03:36:04;4.0;4.0;
53634;PMS5003;39542;-34.932;138.594;2022-12-18T03:36:39;3.0;3.0;
53634;PMS5003;39542;-34.932;138.594;2022-12-18T03:37:13;5.0;3.0;
53634;PMS5003;39542;-34.932;138.594;2022-12-18T03:37:48;3.0;3.0;
53634;PMS5003;39542;-34.932;138.594;2022-12-18T03:38:23;5.0;4.0;
53634;PMS5003;39542;-34.932;138.594;2022-12-18T03:38:58;4.0;4.0;
53634;PMS5003;39542;-34.932;138.594;2022-12-18T03:39:34;3.0;3.0;
53634;PMS5003;39542;-34.932;138.594;2022-12-18T03:40:09;3.0;2.0;
53634;PMS5003;39542;-34.932;138.594;2022-12-18T03:40:48;4.0;4.0;
53634;PMS5003;39542;-34.932;138.594;2022-12-18T03:41:31;5.0;4.0;
53634;PMS5003;39542;-34.932;138.594;2022-12-18T03:42:10;6.0;4.0;
53634;PMS5003;39542;-34.932;138.594;2022-12-18T03:42:51;6.0;6.0;
53634;PMS5003;39542;-34.932;138.594;2022-12-18T03:43:34;4.0;4.0;
53634;PMS5003;39542;-34.932;138.594;2022-12-18T03:44:18;5.0;5.0;
53634;PMS5003;39542;-34.932;138.594;2022-12-18T03:45:02;4.0;4.0;
53634;PMS5003;39542;-34.932;138.594;2022-12-18T03:45:41;5.0;5.0;
53634;PMS5003;39542;-34.932;138.594;2022-12-18T03:46:23;5.0;4.0;
53634;PMS5003;39542;-34.932;138.594;2022-12-18T03:47:01;4.0;4.0;
53634;PMS5003;39542;-34.932;138.594;2022-12-18T03:47:43;3.0;3.0;
53634;PMS5003;39542;-34.932;138.594;2022-12-18T03:48:26;4.0;4.0;
53634;PMS5003;39542;-34.932;138.594;2022-12-18T03:49:08;4.0;4.0;
53634;PMS5003;39542;-34.932;138.594;2022-12-18T03:49:46;4.0;4.0;
53634;PMS5003;39542;-34.932;138.594;2022-12-18T03:50:32;10.0;7.0;
53634;PMS5003;39542;-34.932;138.594;2022-12-18T03:51:17;6.0;6.0;
53634;PMS5003;39542;-34.932;138.594;2022-12-18T03:51:59;5.0;5.0;
53634;PMS5003;39542;-34.932;138.594;2022-12-18T03:52:39;4.0;4.0;